Tuttle, Idaho
Current Conditions -  °F | °C
As of 3:53 PM on Wednesday 26 Nov 2014 (Local Time) from KJER Reporting Station
Clear Clear  
Wind Chill: 55°   Ceiling: Unl
Heat Index: 55°   Visibility: 10mi
Dew Point: 36°   Wind: 3mph
Humidity: 49%   Direction: 290°WNW
Pressure: 30.29"   Gusts: NA
Location:  43.0634°N, 114.867°W
Report Text: KJER 262253Z AUTO 29003KT 10SM CLR 13/02 A3029 RMK AO2 SLP254 T01280022
Loading
Personal Weather Stations






























Interactive Weather Map New forecast layout! Learn more

10-Day Weather Forecast

Advertisements
Track Severe Weather on mobile